createdAt,value
2022-07-28T19:56:18.493Z,99886.84
2022-07-28T19:57:20.766Z,99882.00
2022-07-28T19:58:23.592Z,99888.06
2022-07-28T19:59:25.699Z,99891.81
2022-07-28T20:00:27.985Z,99885.72
2022-07-28T20:01:31.540Z,99897.97
2022-07-28T20:02:33.782Z,99896.47
2022-07-28T20:04:01.759Z,99893.66
2022-07-28T20:04:57.990Z,99889.75
2022-07-28T20:06:00.417Z,99896.78
2022-07-28T20:07:02.800Z,99898.75
2022-07-28T20:08:05.988Z,99896.25
2022-07-28T20:09:08.286Z,99895.09
2022-07-28T20:10:10.644Z,99896.25
2022-07-28T20:11:13.918Z,99890.63
2022-07-28T20:12:16.029Z,99900.06
2022-07-28T20:13:18.082Z,99889.50
2022-07-28T20:14:20.111Z,99897.78
2022-07-28T20:15:22.807Z,99907.53
2022-07-28T20:16:25.093Z,99905.69
2022-07-28T20:17:38.141Z,99900.03
2022-07-28T20:18:44.366Z,99902.38
2022-07-28T20:19:46.495Z,99904.41
2022-07-28T20:20:49.102Z,99908.34
2022-07-28T20:21:51.242Z,99900.78
2022-07-28T20:22:53.523Z,99914.22
2022-07-28T20:23:57.424Z,99906.91
2022-07-28T20:24:59.512Z,99909.91
2022-07-28T20:26:01.572Z,99905.81
2022-07-28T20:27:08.205Z,99906.72
2022-07-28T20:28:11.219Z,99905.53
2022-07-28T20:29:13.350Z,99903.34
2022-07-28T20:30:22.936Z,99918.84
2022-07-28T20:31:25.083Z,99914.75
2022-07-28T20:32:27.368Z,99908.06
2022-07-28T20:33:30.370Z,99907.13
2022-07-28T20:34:32.511Z,99920.03
2022-07-28T20:35:34.695Z,99909.91
2022-07-28T20:36:36.728Z,99913.88
2022-07-28T20:37:39.074Z,99917.03
2022-07-28T20:38:41.197Z,99915.25
2022-07-28T20:39:45.336Z,99913.16
2022-07-28T20:40:47.875Z,99915.13
2022-07-28T20:41:50.135Z,99920.03
2022-07-28T20:42:54.147Z,99922.72
2022-07-28T20:44:18.760Z,99923.19
2022-07-28T20:45:18.663Z,99919.13
2022-07-28T20:46:24.874Z,99919.84
2022-07-28T20:47:28.195Z,99921.00
2022-07-28T20:48:30.445Z,99918.78
2022-07-28T20:49:33.240Z,99912.56
2022-07-28T20:50:35.563Z,99923.13
2022-07-28T20:51:37.829Z,99916.56
2022-07-28T20:52:39.842Z,99918.84
2022-07-28T20:53:41.961Z,99918.13
2022-07-28T20:54:44.015Z,99930.03
2022-07-28T20:55:46.112Z,99932.56
2022-07-28T20:56:48.433Z,99933.31
2022-07-28T20:57:53.955Z,99934.38
2022-07-28T20:58:56.335Z,99935.03
2022-07-28T20:59:58.404Z,99931.94
2022-07-28T21:01:03.248Z,99928.41
2022-07-28T21:02:05.495Z,99937.63
2022-07-28T21:03:08.049Z,99926.91
2022-07-28T21:04:11.349Z,99928.44
2022-07-28T21:05:23.902Z,99934.88
2022-07-28T21:06:35.707Z,99931.66
2022-07-28T21:08:00.061Z,99939.84
2022-07-28T21:09:02.917Z,99935.97
2022-07-28T21:10:06.253Z,99941.13
2022-07-28T21:11:08.399Z,99948.47
2022-07-28T21:12:10.625Z,99938.53
2022-07-28T21:13:12.799Z,99939.78
2022-07-28T21:14:15.014Z,99936.44
2022-07-28T21:15:17.292Z,99943.91
2022-07-28T21:16:19.544Z,99945.97
2022-07-28T21:17:21.666Z,99952.72
2022-07-28T21:18:24.289Z,99947.84
2022-07-28T21:19:26.438Z,99954.50
2022-07-28T21:20:28.619Z,99943.59
2022-07-28T21:21:30.702Z,99944.81
2022-07-28T21:22:32.925Z,99948.09
2022-07-28T21:23:35.027Z,99952.84
2022-07-28T21:24:37.218Z,99951.03
2022-07-28T21:25:39.350Z,99954.75
2022-07-28T21:26:42.903Z,99946.28
2022-07-28T21:28:03.668Z,99948.88
2022-07-28T21:29:12.338Z,99956.53
2022-07-28T21:30:14.644Z,99961.66
2022-07-28T21:31:17.827Z,99949.00
2022-07-28T21:32:19.898Z,99957.00
2022-07-28T21:33:23.378Z,99970.06
2022-07-28T21:34:25.961Z,99966.13
2022-07-28T21:35:28.151Z,99965.47
2022-07-28T21:36:30.418Z,99964.44
2022-07-28T21:37:32.542Z,99954.25
2022-07-28T21:38:34.846Z,99958.66
2022-07-28T21:39:36.973Z,99962.88
2022-07-28T21:40:39.180Z,99967.56
2022-07-28T21:41:41.354Z,99960.13
2022-07-28T21:42:47.117Z,99960.72
2022-07-28T21:43:49.215Z,99963.09
2022-07-28T21:44:54.233Z,99961.47
2022-07-28T21:45:58.699Z,99962.78
2022-07-28T21:47:00.750Z,99952.75
2022-07-28T21:48:02.882Z,99960.28
2022-07-28T21:49:06.175Z,99967.97
2022-07-28T21:50:09.135Z,99958.66
2022-07-28T21:51:19.099Z,99957.78
2022-07-28T21:52:23.630Z,99963.53
2022-07-28T21:53:26.217Z,99967.75
2022-07-28T21:54:28.356Z,99967.34
2022-07-28T21:55:30.774Z,99968.03
2022-07-28T21:56:34.707Z,99969.28
2022-07-28T21:57:37.501Z,99972.53
2022-07-28T21:58:43.041Z,99971.63
2022-07-28T21:59:45.528Z,99965.69
2022-07-28T22:00:50.967Z,99965.69
2022-07-28T22:01:53.117Z,99970.97
2022-07-28T22:02:55.409Z,99975.25
2022-07-28T22:03:57.724Z,99972.06
2022-07-28T22:05:00.003Z,99977.88
2022-07-28T22:06:04.958Z,99977.84
2022-07-28T22:07:09.271Z,99980.47
2022-07-28T22:08:11.428Z,99974.38
2022-07-28T22:09:16.566Z,99978.81
2022-07-28T22:10:18.989Z,99978.72
2022-07-28T22:11:23.014Z,99980.75
2022-07-28T22:12:25.458Z,99973.88
2022-07-28T22:13:28.271Z,99974.78
2022-07-28T22:14:32.522Z,99973.44
2022-07-28T22:15:34.716Z,99980.22
2022-07-28T22:16:37.033Z,99973.13
2022-07-28T22:17:39.204Z,99979.69
2022-07-28T22:18:45.852Z,99973.03
2022-07-28T22:19:48.085Z,99986.16
2022-07-28T22:20:50.441Z,99982.38
2022-07-28T22:21:54.153Z,99982.38
2022-07-28T22:22:56.641Z,99977.38
2022-07-28T22:23:58.711Z,99978.88
2022-07-28T22:25:00.994Z,99974.38
2022-07-28T22:26:03.537Z,99976.38
2022-07-28T22:27:05.815Z,99984.97
2022-07-28T22:28:08.665Z,99982.25
2022-07-28T22:29:11.257Z,99971.00
2022-07-28T22:30:13.584Z,99971.44
2022-07-28T22:31:16.303Z,99975.53
2022-07-28T22:32:28.129Z,99983.03
2022-07-28T22:33:31.243Z,99978.22
2022-07-28T22:34:34.107Z,99987.09
2022-07-28T22:35:36.276Z,99988.00
2022-07-28T22:36:39.095Z,99991.94
2022-07-28T22:37:41.403Z,99983.28
2022-07-28T22:38:43.507Z,99980.78
2022-07-28T22:39:45.648Z,99979.22
2022-07-28T22:40:47.865Z,99984.50
2022-07-28T22:41:52.579Z,99988.22
2022-07-28T22:42:56.893Z,99976.75
2022-07-28T22:43:58.946Z,99991.03
2022-07-28T22:45:05.645Z,99983.81
2022-07-28T22:46:10.417Z,99986.63
2022-07-28T22:47:12.540Z,99988.91
2022-07-28T22:48:14.589Z,99991.25
2022-07-28T22:49:16.885Z,99982.69
2022-07-28T22:50:19.323Z,99993.94
2022-07-28T22:51:21.830Z,99985.63
2022-07-28T22:52:30.245Z,99986.19
2022-07-28T22:53:32.309Z,99979.78
2022-07-28T22:54:38.534Z,99987.53
2022-07-28T22:55:41.511Z,99984.19
2022-07-28T22:56:44.942Z,99977.97
2022-07-28T22:57:47.520Z,99979.69
2022-07-28T22:58:50.326Z,99979.22
2022-07-28T22:59:54.040Z,99984.50
2022-07-28T23:00:56.780Z,99982.94
2022-07-28T23:02:01.476Z,99979.69
2022-07-28T23:03:05.851Z,99992.63
2022-07-28T23:04:09.695Z,99983.94
2022-07-28T23:05:12.371Z,99982.00
2022-07-28T23:06:15.036Z,99991.25
2022-07-28T23:07:17.659Z,99992.34
2022-07-28T23:08:20.923Z,99986.63
2022-07-28T23:09:23.406Z,99987.41
2022-07-28T23:10:26.082Z,99988.41
2022-07-28T23:11:28.831Z,99985.50
2022-07-28T23:12:31.369Z,99990.22
2022-07-28T23:13:33.945Z,99988.66
2022-07-28T23:14:36.716Z,99995.72
2022-07-28T23:15:41.492Z,99999.53
2022-07-28T23:16:44.478Z,99989.88
2022-07-28T23:17:47.697Z,99998.78
2022-07-28T23:18:50.476Z,99992.84
2022-07-28T23:19:58.376Z,99995.41
2022-07-28T23:21:00.874Z,99993.25
2022-07-28T23:22:03.607Z,99999.09
2022-07-28T23:23:06.773Z,99990.00
2022-07-28T23:24:09.421Z,99992.91
2022-07-28T23:25:12.254Z,99988.72
2022-07-28T23:26:14.868Z,99995.72
2022-07-28T23:27:17.420Z,99998.38
2022-07-28T23:28:20.011Z,99999.97
2022-07-28T23:29:22.928Z,100004.16
2022-07-28T23:30:25.648Z,100002.81
2022-07-28T23:31:28.434Z,100003.50
2022-07-28T23:32:31.131Z,99991.81
2022-07-28T23:33:55.917Z,99998.31
2022-07-28T23:35:06.157Z,99996.63
2022-07-28T23:36:14.770Z,100006.94
2022-07-28T23:37:29.479Z,100007.31
2022-07-28T23:38:32.127Z,100008.88
2022-07-28T23:39:34.865Z,100013.16
2022-07-28T23:40:37.485Z,100005.41
2022-07-28T23:41:40.415Z,100012.38
2022-07-28T23:42:42.962Z,100006.94
2022-07-28T23:43:45.510Z,100010.47
2022-07-28T23:44:48.074Z,100001.69
2022-07-28T23:45:50.558Z,100017.66
2022-07-28T23:46:54.046Z,100013.53
2022-07-28T23:47:58.828Z,100020.47
2022-07-28T23:49:01.830Z,100008.13
2022-07-28T23:50:05.738Z,100022.72
2022-07-28T23:51:08.619Z,100014.50
2022-07-28T23:52:11.237Z,100018.56
2022-07-28T23:53:13.784Z,100019.03
2022-07-28T23:54:17.180Z,100009.94
2022-07-28T23:55:20.200Z,100011.50
2022-07-28T23:56:22.707Z,100013.97
2022-07-28T23:57:25.249Z,100017.56
2022-07-28T23:58:34.448Z,100012.06
2022-07-28T23:59:37.005Z,100012.41
